Cedar Bluff, Virginia
Current Conditions -  °F | °C
As of 11:15 PM on Tuesday 25 Nov 2014 (Local Time) from KJFZ Reporting Station
Clear Clear  
Wind Chill: 43°   Ceiling: Unl
Heat Index: 46°   Visibility: 10mi
Dew Point: 25°   Wind: 6mph
Humidity: 45%   Direction: 50°NE
Pressure: 30.07"   Gusts: NA
Location:  37.09°N, 81.76°W
Report Text: KJFZ 260415Z AUTO 05005KT 10SM CLR 08/M04 A3007 RMK AO2 T00771037
Loading
Personal Weather Stations






























Interactive Weather Map New forecast layout! Learn more

10-Day Weather Forecast

Advertisements
Track Severe Weather on mobile